createdAt,value
2023-04-07T00:00:37.117Z,15.79
2023-04-07T00:01:37.194Z,15.74
2023-04-07T00:02:37.318Z,15.74
2023-04-07T00:03:37.373Z,15.86
2023-04-07T00:04:37.370Z,15.80
2023-04-07T00:05:37.343Z,15.86
2023-04-07T00:06:37.412Z,15.79
2023-04-07T00:07:45.263Z,15.76
2023-04-07T00:08:38.443Z,15.70
2023-04-07T00:09:37.408Z,15.63
2023-04-07T00:10:37.431Z,15.60
2023-04-07T00:11:37.388Z,15.56
2023-04-07T00:12:37.385Z,15.64
2023-04-07T00:13:37.412Z,15.53
2023-04-07T00:14:37.409Z,15.59
2023-04-07T00:15:37.446Z,15.62
2023-04-07T00:16:37.423Z,15.67
2023-04-07T00:17:37.486Z,15.77
2023-04-07T00:18:37.436Z,15.60
2023-04-07T00:19:37.495Z,15.57
2023-04-07T00:20:37.571Z,15.64
2023-04-07T00:21:37.616Z,15.67
2023-04-07T00:22:37.700Z,15.71
2023-04-07T00:23:37.718Z,15.70
2023-04-07T00:24:37.789Z,15.66
2023-04-07T00:25:37.791Z,15.73
2023-04-07T00:26:37.832Z,15.67
2023-04-07T00:27:37.913Z,15.77
2023-04-07T00:28:37.952Z,15.77
2023-04-07T00:29:37.969Z,15.74
2023-04-07T00:30:38.034Z,15.77
2023-04-07T00:31:38.101Z,15.76
2023-04-07T00:32:38.263Z,15.80
2023-04-07T00:33:38.150Z,15.72
2023-04-07T00:34:38.182Z,15.76
2023-04-07T00:35:38.294Z,15.84
2023-04-07T00:36:38.276Z,15.72
2023-04-07T00:37:38.350Z,15.84
2023-04-07T00:38:38.397Z,15.80
2023-04-07T00:39:38.451Z,15.79
2023-04-07T00:40:38.547Z,15.89
2023-04-07T00:41:38.563Z,16.13
2023-04-07T00:42:38.644Z,15.91
2023-04-07T00:43:38.675Z,15.90
2023-04-07T00:44:38.708Z,16.07
2023-04-07T00:45:38.752Z,16.06
2023-04-07T00:46:38.823Z,16.14
2023-04-07T00:47:38.940Z,16.30
2023-04-07T00:48:38.878Z,16.31
2023-04-07T00:49:38.957Z,16.26
2023-04-07T00:50:38.943Z,16.28
2023-04-07T00:51:39.020Z,16.43
2023-04-07T00:52:39.110Z,16.34
2023-04-07T00:53:39.099Z,16.44
2023-04-07T00:54:39.163Z,16.70
2023-04-07T00:55:39.225Z,16.68
2023-04-07T00:56:39.283Z,16.54
2023-04-07T00:57:39.348Z,16.63
2023-04-07T00:58:39.349Z,16.60
2023-04-07T00:59:39.452Z,16.55
2023-04-07T01:00:39.467Z,16.37
2023-04-07T01:01:39.651Z,16.31
2023-04-07T01:02:39.806Z,16.33
2023-04-07T01:03:39.818Z,16.23
2023-04-07T01:04:39.813Z,16.26
2023-04-07T01:05:39.699Z,16.17
2023-04-07T01:06:39.748Z,16.21
2023-04-07T01:07:39.824Z,16.21
2023-04-07T01:08:39.821Z,16.16
2023-04-07T01:09:39.873Z,16.03
2023-04-07T01:10:39.946Z,16.04
2023-04-07T01:11:39.974Z,16.21
2023-04-07T01:12:40.047Z,16.14
2023-04-07T01:13:40.052Z,16.20
2023-04-07T01:14:40.110Z,16.26
2023-04-07T01:15:40.186Z,16.38
2023-04-07T01:16:40.258Z,16.30
2023-04-07T01:17:40.635Z,16.35
2023-04-07T01:18:40.346Z,16.40
2023-04-07T01:19:40.346Z,16.34
2023-04-07T01:20:40.478Z,16.41
2023-04-07T01:21:40.440Z,16.60
2023-04-07T01:22:40.531Z,16.84
2023-04-07T01:23:40.585Z,16.67
2023-04-07T01:24:40.656Z,16.78
2023-04-07T01:25:40.710Z,17.00
2023-04-07T01:26:40.717Z,17.04
2023-04-07T01:27:40.770Z,16.91
2023-04-07T01:28:40.813Z,17.09
2023-04-07T01:29:40.881Z,17.09
2023-04-07T01:30:40.930Z,17.14
2023-04-07T01:31:41.025Z,17.17
2023-04-07T01:32:41.027Z,17.12
2023-04-07T01:33:41.018Z,17.18
2023-04-07T01:34:41.133Z,17.21
2023-04-07T01:35:41.133Z,17.28
2023-04-07T01:36:41.165Z,17.24
2023-04-07T01:37:41.248Z,17.30
2023-04-07T01:38:41.261Z,17.30
2023-04-07T01:39:41.314Z,17.37
2023-04-07T01:40:41.344Z,17.40
2023-04-07T01:41:41.427Z,17.37
2023-04-07T01:42:41.422Z,17.34
2023-04-07T01:43:41.903Z,17.37
2023-04-07T01:44:41.538Z,17.38
2023-04-07T01:45:41.618Z,17.44
2023-04-07T01:46:41.620Z,17.44
2023-04-07T01:47:41.738Z,17.38
2023-04-07T01:48:41.670Z,17.45
2023-04-07T01:49:41.739Z,17.45
2023-04-07T01:50:41.852Z,17.50
2023-04-07T01:51:41.858Z,17.44
2023-04-07T01:52:41.907Z,17.48
2023-04-07T01:53:41.972Z,17.54
2023-04-07T01:54:41.992Z,17.48
2023-04-07T01:55:42.038Z,17.43
2023-04-07T01:56:42.139Z,17.48
2023-04-07T01:57:42.213Z,17.51
2023-04-07T01:58:42.227Z,17.57
2023-04-07T01:59:42.238Z,17.58
2023-04-07T02:00:42.302Z,17.68
2023-04-07T02:01:42.381Z,17.69
2023-04-07T02:02:42.561Z,17.62
2023-04-07T02:03:42.608Z,17.58
2023-04-07T02:04:42.458Z,17.64
2023-04-07T02:05:42.498Z,17.62
2023-04-07T02:06:42.590Z,17.61
2023-04-07T02:07:42.581Z,17.69
2023-04-07T02:08:42.630Z,17.72
2023-04-07T02:09:42.693Z,17.69
2023-04-07T02:10:42.753Z,17.74
2023-04-07T02:11:42.748Z,17.74
2023-04-07T02:12:42.820Z,17.75
2023-04-07T02:13:42.861Z,17.74
2023-04-07T02:14:42.951Z,17.77
2023-04-07T02:15:42.978Z,17.72
2023-04-07T02:16:43.115Z,17.82
2023-04-07T02:17:43.169Z,17.79
2023-04-07T02:18:43.173Z,17.81
2023-04-07T02:19:43.191Z,17.85
2023-04-07T02:20:43.185Z,17.85
2023-04-07T02:21:43.248Z,17.82
2023-04-07T02:22:43.348Z,17.82
2023-04-07T02:23:43.305Z,17.89
2023-04-07T02:24:43.354Z,17.91
2023-04-07T02:25:43.362Z,17.94
2023-04-07T02:26:43.435Z,17.79
2023-04-07T02:27:43.543Z,17.91
2023-04-07T02:28:43.552Z,17.95
2023-04-07T02:29:43.595Z,17.95
2023-04-07T02:30:43.663Z,17.98
2023-04-07T02:31:43.926Z,17.99
2023-04-07T02:32:43.752Z,18.06
2023-04-07T02:33:43.814Z,18.02
2023-04-07T02:34:43.836Z,18.04
2023-04-07T02:35:43.907Z,18.08
2023-04-07T02:36:43.976Z,18.09
2023-04-07T02:37:43.966Z,18.08
2023-04-07T02:38:43.964Z,18.06
2023-04-07T02:39:44.026Z,18.06
2023-04-07T02:40:44.159Z,18.06
2023-04-07T02:41:44.200Z,18.12
2023-04-07T02:42:44.205Z,18.14
2023-04-07T02:43:44.194Z,18.14
2023-04-07T02:44:44.273Z,18.19
2023-04-07T02:45:44.347Z,18.19
2023-04-07T02:46:44.388Z,18.12
2023-04-07T02:47:44.420Z,18.24
2023-04-07T02:48:44.389Z,18.21
2023-04-07T02:49:44.444Z,18.24
2023-04-07T02:50:44.505Z,18.29
2023-04-07T02:51:44.584Z,18.33
2023-04-07T02:52:44.565Z,18.33
2023-04-07T02:53:44.634Z,18.32
2023-04-07T02:54:44.766Z,18.31
2023-04-07T02:55:44.826Z,18.35
2023-04-07T02:56:44.760Z,18.35
2023-04-07T02:57:44.812Z,18.38
2023-04-07T02:58:44.810Z,18.38
2023-04-07T02:59:44.982Z,18.38
2023-04-07T03:00:44.935Z,18.41
2023-04-07T03:01:45.065Z,18.38
2023-04-07T03:02:45.250Z,18.32
2023-04-07T03:03:45.337Z,18.35
2023-04-07T03:04:45.196Z,18.42
2023-04-07T03:05:45.123Z,18.39
2023-04-07T03:06:45.146Z,18.44
2023-04-07T03:07:45.233Z,18.38
2023-04-07T03:08:45.248Z,18.37
2023-04-07T03:09:45.249Z,18.41
2023-04-07T03:10:45.293Z,18.45
2023-04-07T03:11:45.471Z,18.42
2023-04-07T03:12:45.383Z,18.45
2023-04-07T03:13:45.462Z,18.36
2023-04-07T03:14:45.497Z,18.44
2023-04-07T03:15:45.511Z,18.46
2023-04-07T03:16:45.602Z,18.46
2023-04-07T03:17:45.646Z,18.49
2023-04-07T03:18:45.620Z,18.49
2023-04-07T03:19:45.755Z,18.48
2023-04-07T03:20:45.743Z,18.54
2023-04-07T03:21:45.780Z,18.54
2023-04-07T03:22:45.852Z,18.56
2023-04-07T03:23:45.870Z,18.54
2023-04-07T03:24:45.881Z,18.58
2023-04-07T03:25:47.575Z,18.56
2023-04-07T03:26:45.923Z,18.55
2023-04-07T03:27:45.882Z,18.55
2023-04-07T03:28:45.862Z,18.58
2023-04-07T03:29:45.899Z,18.59
2023-04-07T03:30:45.943Z,18.58
2023-04-07T03:31:45.954Z,18.59
2023-04-07T03:32:45.895Z,18.58
2023-04-07T03:33:45.908Z,18.61
2023-04-07T03:34:45.880Z,18.56
2023-04-07T03:35:45.849Z,18.58
2023-04-07T03:36:45.861Z,18.61
2023-04-07T03:37:45.818Z,18.58
2023-04-07T03:38:45.868Z,18.63
2023-04-07T03:39:45.879Z,18.66
2023-04-07T03:40:45.803Z,18.62
2023-04-07T03:41:45.778Z,18.61
2023-04-07T03:42:45.830Z,18.63
2023-04-07T03:43:45.816Z,18.62
2023-04-07T03:44:45.819Z,18.66
2023-04-07T03:45:45.876Z,18.72
2023-04-07T03:46:45.937Z,18.66
2023-04-07T03:47:45.909Z,18.69
2023-04-07T03:48:45.776Z,18.68
2023-04-07T03:49:45.776Z,18.73
2023-04-07T03:50:45.790Z,18.69
2023-04-07T03:51:45.766Z,18.63
2023-04-07T03:52:45.722Z,18.66
2023-04-07T03:53:45.771Z,18.65
2023-04-07T03:54:45.780Z,18.66
2023-04-07T03:55:45.766Z,18.69
2023-04-07T03:56:45.723Z,18.72
2023-04-07T03:57:45.693Z,18.78
2023-04-07T03:58:45.705Z,18.70
2023-04-07T03:59:45.720Z,18.70
2023-04-07T04:00:45.706Z,18.72
2023-04-07T04:01:45.722Z,18.51
2023-04-07T04:02:45.787Z,18.82
2023-04-07T04:03:45.824Z,18.85
2023-04-07T04:04:45.766Z,18.82
2023-04-07T04:05:45.667Z,18.83
2023-04-07T04:06:45.715Z,18.81
2023-04-07T04:07:45.653Z,18.82
2023-04-07T04:08:45.671Z,18.79
2023-04-07T04:09:45.642Z,18.74
2023-04-07T04:10:45.653Z,18.76
2023-04-07T04:11:45.656Z,18.70
2023-04-07T04:12:45.625Z,18.72
2023-04-07T04:13:45.603Z,18.73
2023-04-07T04:14:45.637Z,18.77
2023-04-07T04:15:45.649Z,18.77
2023-04-07T04:16:45.598Z,18.79
2023-04-07T04:17:45.556Z,18.77
2023-04-07T04:18:45.696Z,18.76
2023-04-07T04:19:45.665Z,18.77
2023-04-07T04:20:45.739Z,18.79
2023-04-07T04:21:45.765Z,18.81
2023-04-07T04:22:45.829Z,18.85
2023-04-07T04:23:45.869Z,18.83
2023-04-07T04:24:45.876Z,18.86
2023-04-07T04:25:45.995Z,18.86
2023-04-07T04:26:46.056Z,18.82
2023-04-07T04:27:45.996Z,18.81
2023-04-07T04:28:46.105Z,18.86
2023-04-07T04:29:46.149Z,18.90
2023-04-07T04:30:46.171Z,18.87
2023-04-07T04:31:46.250Z,18.90
2023-04-07T04:32:46.264Z,18.91
2023-04-07T04:33:46.315Z,18.94
2023-04-07T04:34:46.368Z,18.91
2023-04-07T04:35:47.385Z,18.94
2023-04-07T04:36:46.470Z,18.96
2023-04-07T04:37:46.490Z,18.97
2023-04-07T04:38:46.561Z,19.03
2023-04-07T04:39:46.563Z,19.11
2023-04-07T04:40:46.562Z,19.09
2023-04-07T04:41:46.617Z,19.09
2023-04-07T04:42:46.620Z,19.14
2023-04-07T04:43:47.892Z,19.13
2023-04-07T04:44:46.730Z,19.16
2023-04-07T04:45:46.743Z,19.14
2023-04-07T04:46:46.842Z,19.12
2023-04-07T04:47:46.869Z,19.14
2023-04-07T04:48:46.856Z,19.10
2023-04-07T04:49:46.855Z,19.17
2023-04-07T04:50:46.937Z,19.17
2023-04-07T04:51:46.992Z,19.22
2023-04-07T04:52:46.996Z,19.19
2023-04-07T04:53:47.097Z,19.17
2023-04-07T04:54:47.067Z,19.14
2023-04-07T04:55:47.106Z,19.20
2023-04-07T04:56:47.125Z,19.17
2023-04-07T04:57:47.193Z,19.19
2023-04-07T04:58:47.235Z,19.19
2023-04-07T04:59:47.253Z,19.23
2023-04-07T05:00:47.743Z,19.20
2023-04-07T05:01:48.112Z,19.22
2023-04-07T05:02:47.485Z,19.20
2023-04-07T05:03:47.643Z,19.16
2023-04-07T05:04:47.555Z,19.14
2023-04-07T05:05:47.488Z,19.16
2023-04-07T05:06:47.526Z,19.16
2023-04-07T05:07:47.566Z,19.12
2023-04-07T05:08:47.579Z,19.10
2023-04-07T05:09:47.644Z,19.13
2023-04-07T05:10:47.804Z,19.13
2023-04-07T05:11:47.691Z,19.13
2023-04-07T05:12:47.693Z,19.12
2023-04-07T05:13:47.763Z,19.13
2023-04-07T05:14:47.769Z,19.13
2023-04-07T05:15:47.913Z,19.13
2023-04-07T05:16:47.882Z,19.14
2023-04-07T05:17:47.885Z,19.09
2023-04-07T05:18:47.946Z,19.16
2023-04-07T05:19:47.991Z,19.13
2023-04-07T05:20:48.000Z,19.04
2023-04-07T05:21:48.074Z,19.13
2023-04-07T05:22:48.103Z,19.02
2023-04-07T05:23:48.150Z,18.91
2023-04-07T05:24:48.299Z,18.98
2023-04-07T05:25:48.251Z,18.66
2023-04-07T05:26:48.315Z,18.69
2023-04-07T05:27:48.317Z,18.73
2023-04-07T05:28:48.338Z,18.70
2023-04-07T05:29:48.361Z,18.63
2023-04-07T05:30:48.433Z,18.77
2023-04-07T05:31:48.499Z,18.63
2023-04-07T05:32:48.633Z,18.73
2023-04-07T05:33:48.952Z,18.77
2023-04-07T05:34:48.640Z,18.85
2023-04-07T05:35:48.718Z,18.75
2023-04-07T05:36:48.719Z,18.86
2023-04-07T05:37:48.734Z,18.82
2023-04-07T05:38:48.771Z,18.77
2023-04-07T05:39:48.857Z,18.76
2023-04-07T05:40:48.954Z,18.68
2023-04-07T05:41:48.973Z,18.65
2023-04-07T05:42:49.027Z,18.76
2023-04-07T05:43:49.247Z,18.75
2023-04-07T05:44:49.045Z,18.77
2023-04-07T05:45:49.119Z,18.79
2023-04-07T05:46:49.138Z,18.69
2023-04-07T05:47:49.230Z,18.64
2023-04-07T05:48:49.215Z,18.63
2023-04-07T05:49:49.253Z,18.73
2023-04-07T05:50:49.339Z,18.56
2023-04-07T05:51:49.475Z,18.66
2023-04-07T05:52:49.415Z,18.75
2023-04-07T05:53:49.590Z,18.77
2023-04-07T05:54:49.526Z,18.79
2023-04-07T05:55:49.588Z,18.82
2023-04-07T05:56:49.576Z,18.90
2023-04-07T05:57:49.646Z,18.83
2023-04-07T05:58:49.768Z,18.79
2023-04-07T05:59:49.700Z,18.82
2023-04-07T06:00:49.777Z,18.82
2023-04-07T06:01:49.887Z,18.80
2023-04-07T06:02:50.170Z,18.85
2023-04-07T06:03:50.095Z,18.89
2023-04-07T06:04:49.992Z,18.86
2023-04-07T06:05:50.023Z,18.92
2023-04-07T06:06:50.053Z,18.97
2023-04-07T06:07:50.073Z,18.98
2023-04-07T06:08:50.130Z,18.94
2023-04-07T06:09:50.176Z,18.90
2023-04-07T06:10:50.183Z,18.94
2023-04-07T06:11:50.305Z,18.97
2023-04-07T06:12:50.269Z,18.93
2023-04-07T06:13:50.604Z,18.97
2023-04-07T06:14:50.356Z,18.93
2023-04-07T06:15:50.429Z,18.93
2023-04-07T06:16:50.499Z,19.00
2023-04-07T06:17:50.540Z,18.98
2023-04-07T06:18:50.541Z,18.99
2023-04-07T06:19:50.569Z,19.00
2023-04-07T06:20:50.587Z,18.99
2023-04-07T06:21:50.625Z,18.96
2023-04-07T06:22:50.673Z,18.98
2023-04-07T06:23:51.186Z,19.00
2023-04-07T06:24:50.798Z,18.98
2023-04-07T06:25:50.800Z,18.95
2023-04-07T06:26:50.831Z,19.03
2023-04-07T06:27:50.902Z,19.02
2023-04-07T06:28:50.926Z,19.00
2023-04-07T06:29:50.947Z,19.06
2023-04-07T06:30:51.098Z,19.05
2023-04-07T06:31:51.030Z,19.08
2023-04-07T06:32:51.185Z,18.99
2023-04-07T06:33:51.499Z,19.03
2023-04-07T06:34:51.174Z,19.09
2023-04-07T06:35:51.196Z,19.00
2023-04-07T06:36:51.262Z,19.02
2023-04-07T06:37:51.360Z,18.98
2023-04-07T06:38:51.357Z,18.99
2023-04-07T06:39:51.369Z,19.01
2023-04-07T06:40:51.413Z,19.02
2023-04-07T06:41:51.409Z,19.02
2023-04-07T06:42:51.489Z,19.03
2023-04-07T06:43:51.543Z,19.02
2023-04-07T06:44:51.562Z,19.00
2023-04-07T06:45:51.621Z,19.03
2023-04-07T06:46:51.622Z,18.98
2023-04-07T06:47:51.715Z,19.02
2023-04-07T06:48:51.675Z,19.00
2023-04-07T06:49:51.775Z,18.99
2023-04-07T06:50:51.848Z,18.99
2023-04-07T06:51:51.803Z,18.99
2023-04-07T06:52:51.842Z,18.98
2023-04-07T06:53:51.853Z,18.95
2023-04-07T06:54:51.921Z,18.98
2023-04-07T06:55:51.920Z,18.98
2023-04-07T06:56:53.631Z,19.00
2023-04-07T06:57:52.201Z,18.98
2023-04-07T06:58:52.245Z,18.99
2023-04-07T06:59:52.328Z,18.99
2023-04-07T07:00:52.321Z,18.96
2023-04-07T07:01:52.411Z,18.98
2023-04-07T07:02:52.562Z,18.95
2023-04-07T07:03:52.835Z,18.98
2023-04-07T07:04:52.458Z,19.02
2023-04-07T07:05:52.499Z,19.04
2023-04-07T07:06:52.509Z,19.08
2023-04-07T07:07:52.589Z,19.01
2023-04-07T07:08:52.587Z,19.05
2023-04-07T07:09:52.625Z,19.01
2023-04-07T07:10:52.651Z,19.04
2023-04-07T07:11:52.675Z,18.98
2023-04-07T07:12:52.683Z,18.98
2023-04-07T07:13:52.728Z,18.97
2023-04-07T07:14:52.758Z,19.02
2023-04-07T07:15:52.949Z,19.02
2023-04-07T07:16:52.852Z,19.07
2023-04-07T07:17:52.905Z,19.05
2023-04-07T07:18:52.911Z,19.01
2023-04-07T07:19:52.907Z,19.01
2023-04-07T07:20:52.981Z,19.02
2023-04-07T07:21:52.977Z,19.01
2023-04-07T07:22:53.053Z,19.04
2023-04-07T07:23:53.052Z,19.00
2023-04-07T07:24:53.113Z,19.05
2023-04-07T07:25:53.127Z,18.98
2023-04-07T07:26:53.178Z,19.00
2023-04-07T07:27:53.178Z,19.04
2023-04-07T07:28:53.246Z,19.04
2023-04-07T07:29:53.214Z,18.95
2023-04-07T07:30:53.319Z,18.95
2023-04-07T07:31:54.425Z,18.97
2023-04-07T07:32:53.316Z,18.97
2023-04-07T07:33:53.378Z,19.00
2023-04-07T07:34:53.376Z,18.97
2023-04-07T07:35:53.469Z,19.02
2023-04-07T07:36:53.472Z,19.00
2023-04-07T07:37:53.792Z,18.93
2023-04-07T07:38:53.507Z,18.96
2023-04-07T07:39:53.558Z,18.91
2023-04-07T07:40:53.562Z,18.94
2023-04-07T07:41:53.564Z,18.90
2023-04-07T07:42:53.561Z,18.91
2023-04-07T07:43:53.654Z,18.88
2023-04-07T07:44:53.655Z,18.90
2023-04-07T07:45:53.651Z,18.94
2023-04-07T07:46:53.737Z,18.92
2023-04-07T07:47:53.757Z,18.90
2023-04-07T07:48:53.778Z,18.91
2023-04-07T07:49:53.783Z,18.88
2023-04-07T07:50:53.795Z,18.89
2023-04-07T07:51:53.801Z,18.87
2023-04-07T07:52:53.871Z,18.90
2023-04-07T07:53:53.851Z,18.90
2023-04-07T07:54:53.927Z,18.90
2023-04-07T07:55:53.936Z,18.92
2023-04-07T07:56:53.958Z,18.87
2023-04-07T07:57:53.951Z,18.87
2023-04-07T07:58:53.988Z,18.88
2023-04-07T07:59:53.969Z,18.89
2023-04-07T08:00:53.995Z,18.90
2023-04-07T08:01:54.025Z,18.86
2023-04-07T08:02:54.069Z,18.88
2023-04-07T08:03:54.603Z,18.85
2023-04-07T08:04:54.066Z,18.88
2023-04-07T08:05:54.107Z,18.88
2023-04-07T08:06:54.114Z,18.85
2023-04-07T08:07:54.797Z,18.85
2023-04-07T08:08:54.129Z,18.82
2023-04-07T08:09:54.106Z,18.82
2023-04-07T08:10:54.144Z,18.75
2023-04-07T08:11:54.164Z,18.78
2023-04-07T08:12:54.168Z,18.77
2023-04-07T08:13:54.187Z,18.82
2023-04-07T08:14:54.208Z,18.75
2023-04-07T08:15:54.208Z,18.78
2023-04-07T08:16:54.184Z,18.78
2023-04-07T08:17:56.072Z,18.75
2023-04-07T08:18:54.233Z,18.81
2023-04-07T08:19:54.244Z,18.80
2023-04-07T08:20:54.197Z,18.85
2023-04-07T08:21:54.245Z,18.84
2023-04-07T08:22:54.207Z,18.85
2023-04-07T08:23:54.225Z,18.80
2023-04-07T08:24:54.220Z,18.78
2023-04-07T08:25:54.236Z,18.78
2023-04-07T08:26:54.248Z,18.80
2023-04-07T08:27:54.230Z,18.78
2023-04-07T08:28:54.264Z,18.82
2023-04-07T08:29:54.264Z,18.78
2023-04-07T08:30:54.223Z,18.84
2023-04-07T08:31:54.272Z,18.81
2023-04-07T08:32:54.335Z,18.84
2023-04-07T08:33:54.243Z,18.74
2023-04-07T08:34:54.237Z,18.75
2023-04-07T08:35:54.289Z,18.71
2023-04-07T08:36:54.254Z,18.71
2023-04-07T08:37:54.262Z,18.69
2023-04-07T08:38:54.229Z,18.69
2023-04-07T08:39:54.269Z,18.69
2023-04-07T08:40:54.232Z,18.67
2023-04-07T08:41:54.242Z,18.67
2023-04-07T08:42:54.245Z,18.66
2023-04-07T08:43:54.216Z,18.66
2023-04-07T08:44:54.228Z,18.61
2023-04-07T08:45:54.270Z,18.65
2023-04-07T08:46:54.260Z,18.67
2023-04-07T08:47:54.255Z,18.63
2023-04-07T08:48:54.229Z,18.65
2023-04-07T08:49:54.232Z,18.60
2023-04-07T08:50:54.167Z,18.59
2023-04-07T08:51:54.199Z,18.62
2023-04-07T08:52:54.238Z,18.65
2023-04-07T08:53:54.180Z,18.64
2023-04-07T08:54:54.189Z,18.62
2023-04-07T08:55:54.191Z,18.59
2023-04-07T08:56:54.247Z,18.61
2023-04-07T08:57:54.252Z,18.62
2023-04-07T08:58:54.257Z,18.61
2023-04-07T08:59:54.314Z,18.64
2023-04-07T09:00:54.389Z,18.62
2023-04-07T09:01:54.332Z,18.58
2023-04-07T09:02:54.373Z,18.58
2023-04-07T09:03:54.542Z,18.57
2023-04-07T09:04:54.344Z,18.53
2023-04-07T09:05:54.415Z,18.62
2023-04-07T09:06:54.459Z,18.60
2023-04-07T09:07:54.461Z,18.58
2023-04-07T09:08:55.274Z,18.55
2023-04-07T09:09:54.531Z,18.53
2023-04-07T09:10:54.584Z,18.57
2023-04-07T09:11:54.653Z,18.59
2023-04-07T09:12:54.669Z,18.59
2023-04-07T09:13:54.693Z,18.55
2023-04-07T09:14:54.775Z,18.54
2023-04-07T09:15:54.814Z,18.54
2023-04-07T09:16:54.924Z,18.59
2023-04-07T09:17:54.964Z,18.60
2023-04-07T09:18:55.007Z,18.54
2023-04-07T09:19:55.058Z,18.56
2023-04-07T09:20:55.117Z,18.56
2023-04-07T09:21:55.157Z,18.56
2023-04-07T09:22:55.229Z,18.57
2023-04-07T09:23:55.271Z,18.59
2023-04-07T09:24:55.389Z,18.59
2023-04-07T09:25:55.396Z,18.55
2023-04-07T09:26:55.477Z,18.59
2023-04-07T09:27:55.518Z,18.55
2023-04-07T09:28:55.701Z,18.50
2023-04-07T09:29:55.696Z,18.56
2023-04-07T09:30:55.711Z,18.53
2023-04-07T09:31:55.868Z,18.53
2023-04-07T09:32:55.963Z,18.59
2023-04-07T09:33:55.920Z,18.58
2023-04-07T09:34:55.974Z,18.50
2023-04-07T09:35:56.060Z,18.50
2023-04-07T09:36:56.045Z,18.53
2023-04-07T09:37:56.152Z,18.53
2023-04-07T09:38:56.262Z,18.55
2023-04-07T09:39:56.279Z,18.53
2023-04-07T09:40:56.599Z,18.52
2023-04-07T09:41:56.390Z,18.50
2023-04-07T09:42:56.444Z,18.53
2023-04-07T09:43:56.554Z,18.56
2023-04-07T09:44:56.616Z,18.63
2023-04-07T09:45:56.710Z,18.61
2023-04-07T09:46:56.769Z,18.52
2023-04-07T09:47:56.789Z,18.50
2023-04-07T09:48:56.839Z,18.55
2023-04-07T09:49:56.895Z,18.59
2023-04-07T09:50:56.953Z,18.65
2023-04-07T09:51:56.998Z,18.68
2023-04-07T09:52:57.074Z,18.71
2023-04-07T09:53:57.129Z,18.61
2023-04-07T09:54:57.204Z,18.71
2023-04-07T09:55:57.244Z,18.77
2023-04-07T09:56:57.303Z,18.86
2023-04-07T09:57:57.425Z,18.82
2023-04-07T09:58:57.492Z,18.78
2023-04-07T09:59:57.509Z,18.75
2023-04-07T10:00:57.607Z,18.78
2023-04-07T10:01:57.765Z,18.79
2023-04-07T10:02:57.969Z,18.81
2023-04-07T10:03:57.799Z,18.84
2023-04-07T10:04:57.820Z,18.88
2023-04-07T10:05:57.832Z,18.75
2023-04-07T10:06:57.893Z,18.81
2023-04-07T10:07:58.011Z,18.74
2023-04-07T10:08:58.022Z,18.86
2023-04-07T10:09:58.120Z,18.91
2023-04-07T10:10:58.182Z,18.91
2023-04-07T10:11:58.166Z,18.95
2023-04-07T10:12:58.299Z,18.90
2023-04-07T10:13:58.280Z,18.91
2023-04-07T10:14:58.405Z,18.88
2023-04-07T10:15:58.426Z,18.84
2023-04-07T10:16:58.498Z,18.75
2023-04-07T10:17:58.656Z,18.84
2023-04-07T10:18:58.603Z,18.97
2023-04-07T10:19:58.632Z,18.99
2023-04-07T10:20:58.712Z,18.99
2023-04-07T10:21:58.746Z,18.97
2023-04-07T10:22:58.827Z,18.91
2023-04-07T10:23:58.871Z,18.96
2023-04-07T10:24:58.999Z,18.94
2023-04-07T10:25:58.981Z,18.97
2023-04-07T10:26:58.989Z,18.93
2023-04-07T10:27:59.123Z,18.94
2023-04-07T10:28:59.126Z,19.01
2023-04-07T10:29:59.178Z,18.98
2023-04-07T10:30:59.275Z,18.87
2023-04-07T10:31:59.295Z,18.91
2023-04-07T10:32:59.423Z,18.86
2023-04-07T10:33:59.424Z,18.90
2023-04-07T10:34:59.520Z,18.98
2023-04-07T10:35:59.838Z,19.03
2023-04-07T10:36:59.550Z,18.98
2023-04-07T10:37:59.564Z,18.93
2023-04-07T10:38:59.655Z,18.94
2023-04-07T10:39:59.661Z,18.90
2023-04-07T10:40:59.701Z,18.87
2023-04-07T10:41:59.767Z,18.85
2023-04-07T10:42:59.830Z,18.86
2023-04-07T10:43:59.867Z,18.76
2023-04-07T10:44:59.901Z,18.72
2023-04-07T10:46:00.183Z,18.76
2023-04-07T10:47:00.026Z,18.74
2023-04-07T10:48:00.096Z,18.70
2023-04-07T10:49:00.137Z,18.74
2023-04-07T10:50:00.144Z,18.79
2023-04-07T10:51:00.188Z,18.82
2023-04-07T10:52:00.254Z,18.74
2023-04-07T10:53:00.311Z,18.82
2023-04-07T10:54:00.372Z,18.81
2023-04-07T10:55:00.364Z,18.86
2023-04-07T10:56:00.445Z,18.82
2023-04-07T10:57:00.499Z,18.81
2023-04-07T10:58:00.537Z,18.84
2023-04-07T10:59:00.604Z,18.81
2023-04-07T11:00:00.588Z,18.84
2023-04-07T11:01:00.685Z,18.81
2023-04-07T11:02:00.820Z,18.78
2023-04-07T11:03:00.985Z,18.78
2023-04-07T11:04:01.013Z,18.82
2023-04-07T11:05:00.896Z,18.74
2023-04-07T11:06:00.971Z,18.75
2023-04-07T11:07:01.026Z,18.78
2023-04-07T11:08:01.020Z,18.72
2023-04-07T11:09:01.081Z,18.72
2023-04-07T11:10:01.136Z,18.74
2023-04-07T11:11:01.193Z,18.77
2023-04-07T11:12:01.244Z,18.75
2023-04-07T11:13:01.275Z,18.77
2023-04-07T11:14:01.328Z,18.72
2023-04-07T11:15:01.383Z,18.77
2023-04-07T11:16:01.545Z,18.70
2023-04-07T11:17:01.512Z,18.74
2023-04-07T11:18:01.606Z,18.74
2023-04-07T11:19:01.639Z,18.72
2023-04-07T11:20:01.663Z,18.71
2023-04-07T11:21:01.687Z,18.71
2023-04-07T11:22:01.886Z,18.74
2023-04-07T11:23:01.800Z,18.70
2023-04-07T11:24:01.970Z,18.70
2023-04-07T11:25:01.906Z,18.68
2023-04-07T11:26:02.015Z,18.68
2023-04-07T11:27:02.028Z,18.68
2023-04-07T11:28:02.040Z,18.70
2023-04-07T11:29:02.093Z,18.70
2023-04-07T11:30:02.154Z,18.67
2023-04-07T11:31:02.299Z,18.70
2023-04-07T11:32:02.300Z,18.71
2023-04-07T11:33:02.346Z,18.70
2023-04-07T11:34:02.386Z,18.65
2023-04-07T11:35:02.394Z,18.67
2023-04-07T11:36:03.393Z,18.68
2023-04-07T11:37:02.589Z,18.71
2023-04-07T11:38:02.611Z,18.71
2023-04-07T11:39:02.614Z,18.74
2023-04-07T11:40:02.681Z,18.72
2023-04-07T11:41:02.749Z,18.70
2023-04-07T11:42:02.792Z,18.70
2023-04-07T11:43:02.858Z,18.68
2023-04-07T11:44:02.896Z,18.70
2023-04-07T11:45:02.960Z,18.74
2023-04-07T11:46:02.985Z,18.71
2023-04-07T11:47:03.126Z,18.71
2023-04-07T11:48:03.117Z,18.61
2023-04-07T11:49:03.136Z,18.70
2023-04-07T11:50:03.204Z,18.71
2023-04-07T11:51:03.473Z,18.74
2023-04-07T11:52:03.494Z,18.71
2023-04-07T11:53:03.391Z,18.73
2023-04-07T11:54:03.451Z,18.74
2023-04-07T11:55:03.489Z,18.68
2023-04-07T11:56:03.556Z,18.77
2023-04-07T11:57:03.570Z,18.73
2023-04-07T11:58:03.605Z,18.78
2023-04-07T11:59:03.650Z,18.74
2023-04-07T12:00:03.736Z,18.74
2023-04-07T12:01:03.765Z,18.73
2023-04-07T12:02:03.898Z,18.71
2023-04-07T12:03:04.089Z,18.67
2023-04-07T12:04:04.357Z,18.73
2023-04-07T12:05:04.058Z,18.74
2023-04-07T12:06:04.075Z,18.75
2023-04-07T12:07:04.080Z,18.73
2023-04-07T12:08:04.207Z,18.70
2023-04-07T12:09:04.194Z,18.71
2023-04-07T12:10:04.276Z,18.69
2023-04-07T12:11:04.325Z,18.68
2023-04-07T12:12:04.535Z,18.61
2023-04-07T12:13:04.433Z,18.80
2023-04-07T12:14:04.557Z,18.90
2023-04-07T12:15:04.553Z,18.83
2023-04-07T12:16:05.443Z,18.87
2023-04-07T12:17:04.704Z,18.84
2023-04-07T12:18:04.699Z,18.82
2023-04-07T12:19:04.712Z,18.79
2023-04-07T12:20:04.815Z,18.82
2023-04-07T12:21:04.811Z,18.87
2023-04-07T12:22:04.874Z,18.82
2023-04-07T12:23:04.908Z,18.86
2023-04-07T12:24:05.329Z,18.90
2023-04-07T12:25:04.983Z,18.87
2023-04-07T12:26:05.035Z,18.83
2023-04-07T12:27:05.085Z,18.76
2023-04-07T12:28:05.151Z,18.86
2023-04-07T12:29:05.234Z,18.89
2023-04-07T12:30:05.234Z,18.91
2023-04-07T12:31:05.308Z,18.95
2023-04-07T12:32:05.347Z,18.95
2023-04-07T12:33:05.345Z,18.95
2023-04-07T12:34:05.394Z,18.96
2023-04-07T12:35:05.404Z,18.93
2023-04-07T12:36:05.477Z,18.95
2023-04-07T12:37:05.477Z,18.96
2023-04-07T12:38:05.537Z,18.96
2023-04-07T12:39:05.572Z,18.96
2023-04-07T12:40:05.596Z,18.96
2023-04-07T12:41:05.716Z,18.93
2023-04-07T12:42:05.727Z,18.98
2023-04-07T12:43:05.722Z,19.02
2023-04-07T12:44:05.814Z,19.00
2023-04-07T12:45:05.849Z,18.95
2023-04-07T12:46:05.876Z,19.02
2023-04-07T12:47:05.906Z,19.00
2023-04-07T12:48:06.059Z,19.07
2023-04-07T12:49:05.976Z,19.03
2023-04-07T12:50:06.022Z,18.99
2023-04-07T12:51:06.090Z,19.03
2023-04-07T12:52:06.099Z,19.00
2023-04-07T12:53:06.139Z,19.02